Time;durP1;ratioP1;P1;durP2;ratioP2;P2;SDS_P1;SDS_P2;PMS_P1;PMS_P2;Temp;Humidity;BMP_temperature;BMP_pressure;BME280_temperature;BME280_humidity;BME280_pressure;Samples;Min_cycle;Max_cycle;Signal;HPM_P1;HPM_P2
2021/01/21 00:01:06;;;;;;;6.88;1.38;;;;;;;5.82;68.18;98377.75;5097024;28;20024;-85
2021/01/21 00:03:33;;;;;;;5.68;1.73;;;;;;;5.74;68.60;98370.28;5095363;28;20065;-85
2021/01/21 00:05:59;;;;;;;4.68;1.52;;;;;;;5.87;68.12;98372.44;5095216;28;20028;-85
2021/01/21 00:08:24;;;;;;;3.58;1.20;;;;;;;5.94;67.49;98363.63;5097127;28;20388;-85
2021/01/21 00:10:50;;;;;;;5.72;1.67;;;;;;;6.05;67.06;98364.09;5094582;28;20024;-85
2021/01/21 00:13:15;;;;;;;6.25;1.30;;;;;;;5.86;68.07;98360.47;5094821;28;20062;-85
2021/01/21 00:15:40;;;;;;;4.60;1.38;;;;;;;5.77;68.36;98348.75;5094753;28;20035;-85
2021/01/21 00:18:05;;;;;;;4.68;1.35;;;;;;;5.87;68.11;98359.56;5094669;28;20020;-85
2021/01/21 00:20:31;;;;;;;5.90;1.55;;;;;;;5.84;68.28;98354.53;5096319;28;20027;-85
2021/01/21 00:22:56;;;;;;;8.00;1.50;;;;;;;5.85;67.69;98358.75;5098511;28;20035;-85
2021/01/21 00:25:21;;;;;;;6.85;1.40;;;;;;;6.01;67.48;98349.66;5095654;28;20028;-85
2021/01/21 00:27:46;;;;;;;4.07;1.08;;;;;;;5.99;67.87;98341.16;5098949;28;20403;-85
2021/01/21 00:30:12;;;;;;;6.78;1.67;;;;;;;5.90;68.16;98344.03;5097746;28;20236;-85
2021/01/21 00:32:40;;;;;;;6.88;1.75;;;;;;;5.98;68.08;98336.91;5096911;28;20468;-85
2021/01/21 00:35:06;;;;;;;5.15;1.27;;;;;;;5.86;68.50;98334.75;5094891;28;20399;-85
2021/01/21 00:37:32;;;;;;;5.90;1.35;;;;;;;5.94;68.18;98333.63;5095598;28;20103;-85
2021/01/21 00:39:57;;;;;;;4.22;1.05;;;;;;;6.10;67.75;98344.19;5096025;28;20484;-85
2021/01/21 00:42:22;;;;;;;4.93;1.10;;;;;;;6.06;67.87;98337.47;5116863;28;20092;-85
2021/01/21 00:44:47;;;;;;;3.78;1.30;;;;;;;5.95;68.63;98331.88;5117482;28;20023;-84
2021/01/21 00:47:13;;;;;;;5.75;1.40;;;;;;;5.95;68.48;98329.31;5097144;28;20462;-85
2021/01/21 00:49:38;;;;;;;8.07;2.08;;;;;;;5.85;69.25;98320.19;5093824;28;20027;-85
2021/01/21 00:52:03;;;;;;;3.65;1.20;;;;;;;5.78;69.70;98317.81;5093366;28;20041;-85
2021/01/21 00:54:29;;;;;;;8.00;1.50;;;;;;;5.78;69.45;98314.41;5093251;28;20020;-85
2021/01/21 00:56:54;;;;;;;4.25;1.33;;;;;;;5.75;69.61;98307.63;5093395;28;20020;-85
2021/01/21 00:59:19;;;;;;;7.47;1.45;;;;;;;5.76;70.06;98301.63;5093383;28;20023;-85
2021/01/21 01:01:44;;;;;;;5.32;1.40;;;;;;;5.76;70.02;98293.06;5093228;28;20396;-85
2021/01/21 01:04:10;;;;;;;5.70;1.73;;;;;;;5.68;70.60;98288.19;5093071;28;20023;-85
2021/01/21 01:06:35;;;;;;;4.50;1.23;;;;;;;5.87;69.41;98284.97;5093206;28;20024;-85
2021/01/21 01:09:00;;;;;;;5.22;1.27;;;;;;;5.74;70.04;98287.97;5093174;28;20464;-85
2021/01/21 01:11:25;;;;;;;4.68;1.20;;;;;;;5.69;70.50;98282.13;5092824;28;20085;-85
2021/01/21 01:13:51;;;;;;;4.55;1.35;;;;;;;5.80;70.00;98289.50;5092689;28;20047;-85
2021/01/21 01:16:16;;;;;;;5.32;1.50;;;;;;;5.73;70.25;98273.44;5093740;28;20133;-85
2021/01/21 01:18:42;;;;;;;6.70;1.48;;;;;;;5.67;70.64;98268.50;5092930;28;20032;-84
2021/01/21 01:21:07;;;;;;;4.90;1.15;;;;;;;5.62;70.71;98272.97;5116390;22;20024;-80
2021/01/21 01:23:32;;;;;;;5.55;1.30;;;;;;;5.64;70.72;98263.47;5095399;28;20036;-82
2021/01/21 01:25:58;;;;;;;5.03;1.35;;;;;;;5.65;70.60;98265.16;5094186;28;20027;-81
2021/01/21 01:28:23;;;;;;;4.55;1.20;;;;;;;5.66;70.45;98260.84;5094363;28;20020;-82
2021/01/21 01:30:48;;;;;;;5.05;1.17;;;;;;;5.70;70.52;98263.25;5094409;28;20066;-81
2021/01/21 01:33:14;;;;;;;4.07;1.10;;;;;;;5.78;70.06;98253.53;5094261;28;20028;-82
2021/01/21 01:35:39;;;;;;;6.10;1.40;;;;;;;5.74;70.46;98244.25;5094397;28;20038;-81
2021/01/21 01:38:04;;;;;;;5.43;1.60;;;;;;;5.71;70.69;98234.06;5094231;28;20024;-81
2021/01/21 01:40:29;;;;;;;3.88;0.93;;;;;;;6.10;68.64;98236.13;5096300;28;20039;-82
2021/01/21 01:42:56;;;;;;;5.35;1.30;;;;;;;5.93;69.73;98243.59;5094852;28;20132;-81
2021/01/21 01:45:21;;;;;;;5.00;1.17;;;;;;;5.97;69.41;98240.03;5094379;28;20020;-81
2021/01/21 01:47:46;;;;;;;5.82;1.20;;;;;;;6.14;68.67;98227.38;5095965;28;20034;-82
2021/01/21 01:50:14;;;;;;;5.22;1.35;;;;;;;6.01;69.72;98228.75;5096294;28;20028;-81
2021/01/21 01:52:43;;;;;;;5.47;1.60;;;;;;;5.93;69.90;98223.88;5095751;28;20390;-81
2021/01/21 01:55:11;;;;;;;5.05;1.50;;;;;;;5.96;69.97;98220.34;5095747;28;20028;-81
2021/01/21 01:57:37;;;;;;;4.13;1.23;;;;;;;6.00;69.74;98216.75;5093991;28;20479;-81
2021/01/21 02:00:04;;;;;;;3.67;1.38;;;;;;;6.11;69.01;98217.19;5093919;28;20024;-82
2021/01/21 02:02:29;;;;;;;5.15;1.30;;;;;;;6.07;69.52;98210.50;5094127;28;20024;-81
2021/01/21 02:04:55;;;;;;;3.42;1.00;;;;;;;6.15;69.55;98199.91;5094058;28;20119;-81
2021/01/21 02:07:20;;;;;;;4.00;1.25;;;;;;;6.30;68.57;98201.03;5095100;28;20059;-81
2021/01/21 02:09:45;;;;;;;5.93;1.42;;;;;;;6.26;69.06;98202.91;5094420;28;20036;-82
2021/01/21 02:12:36;;;;;;;4.53;1.30;;;;;;;6.22;68.85;98204.78;5095977;28;20563;-81
2021/01/21 02:15:30;;;;;;;5.18;1.38;;;;;;;6.24;68.66;98186.69;5096541;28;20449;-82
2021/01/21 02:18:12;;;;;;;6.13;1.50;;;;;;;6.36;68.86;98180.22;5095726;28;20063;-82
2021/01/21 02:21:07;;;;;;;6.45;1.30;;;;;;;6.41;68.45;98170.59;5096234;28;20098;-81
2021/01/21 02:24:00;;;;;;;4.70;1.02;;;;;;;6.37;68.57;98164.72;5094533;28;20365;-81
2021/01/21 02:26:32;;;;;;;7.53;1.20;;;;;;;6.44;68.28;98170.47;5094211;28;20028;-81
2021/01/21 02:29:10;;;;;;;5.32;1.17;;;;;;;6.42;68.40;98157.63;5097812;28;20111;-81
2021/01/21 02:31:50;;;;;;;5.53;1.20;;;;;;;6.54;67.71;98150.31;5097821;28;20050;-81
2021/01/21 02:34:27;;;;;;;4.70;1.23;;;;;;;6.38;68.38;98147.53;5098407;28;20095;-82
2021/01/21 02:36:55;;;;;;;4.80;1.38;;;;;;;6.39;68.71;98131.19;5097444;28;20024;-82
2021/01/21 02:39:22;;;;;;;7.03;1.55;;;;;;;6.41;68.72;98131.97;5099180;28;20135;-82
2021/01/21 02:41:48;;;;;;;3.55;1.00;;;;;;;6.62;67.26;98125.94;5098453;28;20047;-82
2021/01/21 02:44:14;;;;;;;4.93;1.42;;;;;;;6.49;68.00;98123.91;5097705;28;20020;-82
2021/01/21 02:46:40;;;;;;;5.63;1.40;;;;;;;6.39;68.85;98105.44;5099180;28;20065;-82
2021/01/21 02:49:05;;;;;;;4.57;1.40;;;;;;;6.36;69.12;98110.72;5098369;28;20042;-81
2021/01/21 02:51:41;;;;;;;5.53;1.30;;;;;;;6.44;68.24;98106.94;5098793;28;20507;-82
2021/01/21 02:54:24;;;;;;;8.13;1.45;;;;;;;6.61;67.42;98095.91;5098096;28;20035;-82
2021/01/21 02:56:55;;;;;;;6.70;1.30;;;;;;;6.55;67.93;98088.44;5097613;28;20061;-82
2021/01/21 02:59:22;;;;;;;8.18;1.63;;;;;;;6.58;67.82;98080.59;5099058;28;20020;-82
2021/01/21 03:01:50;;;;;;;4.18;1.45;;;;;;;6.47;68.21;98062.19;5097326;28;20028;-81
2021/01/21 03:04:16;;;;;;;4.63;1.20;;;;;;;6.61;67.72;98059.84;5097365;28;20022;-82
2021/01/21 03:06:43;;;;;;;5.22;1.63;;;;;;;6.53;68.04;98048.22;5096742;28;20035;-82
2021/01/21 03:09:08;;;;;;;6.68;1.52;;;;;;;6.53;68.11;98036.19;5097070;28;20081;-82
2021/01/21 03:11:33;;;;;;;5.20;1.33;;;;;;;6.45;68.61;98035.66;5097737;28;20023;-81
2021/01/21 03:13:59;;;;;;;5.70;1.27;;;;;;;6.66;67.68;98031.34;5098379;28;20035;-82
2021/01/21 03:16:24;;;;;;;6.43;1.35;;;;;;;6.57;68.13;98035.16;5099133;28;20028;-81
2021/01/21 03:18:51;;;;;;;6.75;1.27;;;;;;;6.69;67.39;98016.59;5104077;28;20541;-81
2021/01/21 03:21:19;;;;;;;4.30;1.35;;;;;;;6.81;66.78;98022.94;5099248;28;20031;-82
2021/01/21 03:23:48;;;;;;;6.18;1.55;;;;;;;6.81;66.82;98027.28;5096939;28;20016;-82
2021/01/21 03:26:13;;;;;;;6.35;1.30;;;;;;;6.84;66.66;98022.81;5097161;28;20020;-83
2021/01/21 03:28:39;;;;;;;4.07;1.15;;;;;;;6.84;67.29;98019.41;5096788;28;20024;-83
2021/01/21 03:31:05;;;;;;;4.97;1.40;;;;;;;6.87;67.33;98007.22;5096644;28;20024;-82
2021/01/21 03:33:30;;;;;;;4.85;1.35;;;;;;;6.89;66.67;98007.97;5096711;28;20027;-82
2021/01/21 03:35:56;;;;;;;6.05;1.27;;;;;;;6.80;67.47;98002.41;5096271;28;20024;-82
2021/01/21 03:38:21;;;;;;;4.68;1.33;;;;;;;6.89;67.21;97994.25;5095362;28;20031;-82
2021/01/21 03:40:46;;;;;;;5.50;1.30;;;;;;;6.90;66.99;97983.91;5095528;28;20046;-83
2021/01/21 03:43:12;;;;;;;8.13;1.38;;;;;;;6.86;67.35;97978.94;5097691;28;20016;-82
2021/01/21 03:45:37;;;;;;;4.25;1.05;;;;;;;6.99;66.10;97980.06;5096396;28;20028;-82
2021/01/21 03:48:03;;;;;;;5.38;1.65;;;;;;;7.04;65.88;97972.13;5097844;28;20028;-82
2021/01/21 03:50:28;;;;;;;6.18;1.35;;;;;;;6.93;66.46;97970.06;5096015;28;20472;-82
2021/01/21 03:52:53;;;;;;;4.15;1.30;;;;;;;7.08;65.82;97956.47;5096829;28;20024;-82
2021/01/21 03:55:19;;;;;;;5.82;1.48;;;;;;;7.10;65.87;97952.06;5096261;28;20102;-82
2021/01/21 03:57:44;;;;;;;5.10;1.42;;;;;;;7.20;65.18;97951.63;5097628;28;20035;-81
2021/01/21 04:00:10;;;;;;;6.70;1.65;;;;;;;7.33;64.39;97952.75;5096211;28;20077;-82
2021/01/21 04:02:35;;;;;;;4.65;1.58;;;;;;;7.18;65.37;97948.31;5096564;28;20019;-82
2021/01/21 04:05:00;;;;;;;3.22;0.85;;;;;;;7.27;64.65;97938.41;5096651;28;20028;-82
2021/01/21 04:07:25;;;;;;;6.95;1.30;;;;;;;7.33;64.46;97942.44;5096399;28;20020;-82
2021/01/21 04:09:51;;;;;;;3.75;1.13;;;;;;;7.23;64.81;97939.44;5097422;28;20024;-82
2021/01/21 04:12:16;;;;;;;5.85;1.33;;;;;;;7.26;64.51;97947.03;5096691;28;20053;-82
2021/01/21 04:14:41;;;;;;;5.80;1.13;;;;;;;7.31;64.13;97934.75;5098459;28;20103;-82
2021/01/21 04:17:06;;;;;;;4.60;0.77;;;;;;;7.36;63.89;97935.38;5096694;28;20036;-82
2021/01/21 04:19:32;;;;;;;5.95;1.30;;;;;;;7.23;64.42;97930.88;5096150;28;20027;-82
2021/01/21 04:21:57;;;;;;;6.22;1.45;;;;;;;7.32;63.88;97931.25;5096688;28;20035;-82
2021/01/21 04:24:22;;;;;;;3.88;1.40;;;;;;;7.36;63.67;97921.66;5095632;28;20077;-82
2021/01/21 04:26:48;;;;;;;3.75;1.30;;;;;;;7.33;63.72;97930.38;5097662;28;20023;-82
2021/01/21 04:29:13;;;;;;;5.35;1.23;;;;;;;7.32;63.92;97913.22;5097048;28;20020;-82
2021/01/21 04:31:38;;;;;;;4.40;1.83;;;;;;;7.20;64.24;97900.91;5095937;28;20058;-82
2021/01/21 04:34:03;;;;;;;4.50;1.20;;;;;;;7.17;64.36;97911.38;5096980;28;20379;-82
2021/01/21 04:36:29;;;;;;;5.60;1.73;;;;;;;7.08;64.57;97911.78;5095777;28;20115;-82
2021/01/21 04:38:54;;;;;;;4.75;1.30;;;;;;;7.14;64.32;97912.38;5096917;28;20035;-82
2021/01/21 04:41:19;;;;;;;5.82;1.33;;;;;;;6.98;65.09;97897.69;5094883;28;20028;-81
2021/01/21 04:43:45;;;;;;;4.90;0.95;;;;;;;7.03;64.68;97891.41;5095462;28;20020;-82
2021/01/21 04:46:11;;;;;;;4.13;1.10;;;;;;;7.05;64.49;97891.31;5096914;28;20545;-82
2021/01/21 04:48:39;;;;;;;1.98;0.55;;;;;;;7.26;63.62;97886.91;5095693;28;20024;-82
2021/01/21 04:51:05;;;;;;;3.72;1.15;;;;;;;7.06;64.18;97870.66;5095311;28;20459;-81
2021/01/21 04:53:33;;;;;;;4.47;1.35;;;;;;;6.91;65.25;97849.00;5095123;28;20020;-82
2021/01/21 04:56:02;;;;;;;3.78;0.90;;;;;;;7.06;64.42;97877.53;5094886;28;20060;-82
2021/01/21 04:58:48;;;;;;;3.35;1.02;;;;;;;7.04;64.45;97875.03;5096546;28;20053;-82
2021/01/21 05:01:14;;;;;;;5.68;1.23;;;;;;;7.00;64.29;97852.06;5094969;28;20121;-82
2021/01/21 05:03:40;;;;;;;5.32;1.40;;;;;;;6.94;64.53;97863.50;5094395;28;20488;-81
2021/01/21 05:06:05;;;;;;;10.57;1.35;;;;;;;7.20;63.32;97853.69;5095034;28;20102;-82
2021/01/21 05:08:32;;;;;;;4.15;0.93;;;;;;;7.23;63.11;97848.38;5095111;28;20031;-83
2021/01/21 05:10:57;;;;;;;8.40;1.60;;;;;;;6.90;64.88;97833.63;5094187;28;20392;-83
2021/01/21 05:13:22;;;;;;;4.15;1.00;;;;;;;7.05;64.17;97850.94;5094510;28;20027;-82
2021/01/21 05:15:47;;;;;;;9.02;1.45;;;;;;;6.85;64.62;97838.16;5094507;28;20119;-82
2021/01/21 05:18:13;;;;;;;4.60;1.33;;;;;;;6.96;64.20;97833.34;5096441;28;20023;-81
2021/01/21 05:20:39;;;;;;;5.30;1.17;;;;;;;6.93;64.42;97830.91;5094895;28;20446;-82
2021/01/21 05:23:05;;;;;;;7.07;1.25;;;;;;;6.92;64.49;97824.06;5093947;28;20093;-82
2021/01/21 05:25:31;;;;;;;3.83;1.17;;;;;;;6.87;64.59;97813.16;5094100;28;20046;-81
2021/01/21 05:28:05;;;;;;;4.55;1.17;;;;;;;6.82;64.65;97807.38;5093961;28;20031;-81
2021/01/21 05:30:31;;;;;;;4.10;1.05;;;;;;;6.91;64.26;97797.47;5094698;28;20480;-82
2021/01/21 05:33:00;;;;;;;6.25;1.40;;;;;;;7.20;63.03;97802.13;5094089;28;20123;-82
2021/01/21 05:35:26;;;;;;;4.03;1.10;;;;;;;7.15;63.16;97787.72;5096451;28;20028;-82
2021/01/21 05:37:55;;;;;;;6.68;1.30;;;;;;;7.05;63.64;97788.22;5095297;28;20035;-82
2021/01/21 05:40:26;;;;;;;2.85;1.00;;;;;;;7.00;63.81;97793.63;5094862;28;20115;-82
2021/01/21 05:42:53;;;;;;;2.50;0.93;;;;;;;7.15;63.14;97774.84;5095638;28;20035;-82
2021/01/21 05:45:20;;;;;;;6.07;1.52;;;;;;;7.25;62.96;97779.53;5094836;28;20024;-82
2021/01/21 05:47:53;;;;;;;5.50;1.20;;;;;;;7.22;63.32;97779.69;5094688;28;20016;-82
2021/01/21 05:50:18;;;;;;;3.42;0.90;;;;;;;7.04;63.56;97782.25;5095338;28;20028;-82
2021/01/21 05:52:44;;;;;;;7.13;1.35;;;;;;;7.23;62.81;97755.56;5094245;28;20028;-81
2021/01/21 05:55:09;;;;;;;4.45;1.10;;;;;;;7.28;62.49;97749.28;5096401;28;20119;-81
2021/01/21 05:57:35;;;;;;;3.92;1.13;;;;;;;7.30;62.70;97762.94;5096682;28;20024;-82
2021/01/21 06:00:01;;;;;;;4.97;1.13;;;;;;;7.35;62.54;97754.97;5095513;28;20028;-82
2021/01/21 06:02:26;;;;;;;2.53;0.80;;;;;;;7.45;61.93;97730.41;5093653;28;20026;-82
2021/01/21 06:04:51;;;;;;;4.78;1.08;;;;;;;7.58;61.47;97740.91;5098500;28;20026;-82
2021/01/21 06:07:21;;;;;;;4.95;1.27;;;;;;;7.56;61.99;97753.88;5097020;28;20051;-82
2021/01/21 06:09:47;;;;;;;3.35;0.77;;;;;;;7.56;61.80;97735.00;5095677;28;20028;-82
2021/01/21 06:12:13;;;;;;;2.22;0.75;;;;;;;7.59;61.67;97745.16;5095824;28;20031;-82
2021/01/21 06:14:40;;;;;;;3.78;1.00;;;;;;;7.52;61.81;97738.66;5095508;28;20424;-82
2021/01/21 06:17:06;;;;;;;5.13;1.08;;;;;;;7.49;61.83;97737.06;5095068;28;20437;-82
2021/01/21 06:19:31;;;;;;;3.33;0.90;;;;;;;7.74;60.74;97735.78;5096719;28;20024;-82
2021/01/21 06:21:59;;;;;;;5.50;0.93;;;;;;;7.57;61.56;97728.91;5094350;28;20024;-82
2021/01/21 06:24:29;;;;;;;3.80;0.73;;;;;;;7.65;61.14;97705.31;5094772;28;20036;-82
2021/01/21 06:26:55;;;;;;;4.85;1.00;;;;;;;7.58;61.31;97726.28;5095592;28;20119;-82
2021/01/21 06:29:25;;;;;;;3.70;1.00;;;;;;;7.63;61.43;97701.97;5096544;28;20016;-82
2021/01/21 06:31:51;;;;;;;4.15;1.02;;;;;;;7.69;60.89;97727.44;5099073;28;20036;-82
2021/01/21 06:34:23;;;;;;;3.30;0.95;;;;;;;7.70;61.31;97726.56;5097520;28;20186;-82
2021/01/21 06:37:13;;;;;;;3.03;1.10;;;;;;;7.64;61.30;97719.97;5097916;28;20046;-82
2021/01/21 06:39:50;;;;;;;3.20;1.00;;;;;;;7.57;61.91;97719.44;5090112;28;20218;-82
2021/01/21 06:42:27;;;;;;;3.47;0.63;;;;;;;7.90;60.15;97721.16;5097677;28;20107;-82
2021/01/21 06:44:54;;;;;;;4.47;1.15;;;;;;;7.86;60.66;97722.25;5098125;28;20016;-82
2021/01/21 06:47:20;;;;;;;4.00;1.15;;;;;;;7.77;61.31;97715.81;5099600;28;20500;-82
2021/01/21 06:49:46;;;;;;;6.20;1.10;;;;;;;8.04;59.91;97713.53;5099745;28;20070;-82
2021/01/21 06:52:12;;;;;;;3.45;1.00;;;;;;;7.87;61.07;97729.06;5099644;28;20019;-82
2021/01/21 06:54:38;;;;;;;3.88;1.20;;;;;;;8.00;60.27;97731.81;5099497;28;20035;-82
2021/01/21 06:57:36;;;;;;;4.65;0.95;;;;;;;7.99;60.37;97735.34;5099979;28;20028;-82
2021/01/21 07:00:11;;;;;;;3.03;1.00;;;;;;;8.10;60.09;97711.50;5099861;28;20024;-82
2021/01/21 07:02:48;;;;;;;2.70;0.80;;;;;;;8.03;60.83;97726.50;5101363;28;20024;-82
2021/01/21 07:05:20;;;;;;;2.88;0.98;;;;;;;7.96;60.72;97714.84;5099335;28;20400;-82
2021/01/21 07:08:01;;;;;;;3.03;0.90;;;;;;;8.40;58.89;97720.19;5099165;28;20028;-82
2021/01/21 07:10:40;;;;;;;3.45;0.88;;;;;;;8.12;60.64;97712.28;5098956;28;20032;-82
2021/01/21 07:13:09;;;;;;;5.03;1.15;;;;;;;8.25;60.05;97721.88;5097644;28;20038;-82
2021/01/21 07:15:40;;;;;;;6.97;1.38;;;;;;;8.38;59.51;97736.69;5103720;28;20028;-82
2021/01/21 07:18:10;;;;;;;6.63;1.58;;;;;;;8.53;59.52;97739.28;5102381;28;20394;-82
2021/01/21 07:20:36;;;;;;;5.05;1.17;;;;;;;8.50;59.54;97731.72;5102056;28;20040;-82
2021/01/21 07:23:07;;;;;;;2.90;0.70;;;;;;;8.60;59.38;97739.78;5103392;28;20100;-82
2021/01/21 07:25:33;;;;;;;3.35;0.85;;;;;;;8.72;59.00;97731.34;5102090;28;20020;-82
2021/01/21 07:28:07;;;;;;;1.52;0.60;;;;;;;8.79;58.27;97737.00;5100992;28;20027;-82
2021/01/21 07:30:37;;;;;;;3.30;0.88;;;;;;;8.81;58.73;97760.19;5101975;28;20024;-82
2021/01/21 07:33:25;;;;;;;3.45;0.90;;;;;;;9.06;58.08;97737.19;5101571;28;20391;-82
2021/01/21 07:35:51;;;;;;;2.70;0.73;;;;;;;9.03;58.21;97736.53;5102223;28;20032;-82
2021/01/21 07:38:49;;;;;;;3.83;0.73;;;;;;;8.95;58.40;97773.97;5101312;28;20026;-83
2021/01/21 07:41:43;;;;;;;3.83;0.90;;;;;;;9.08;58.39;97779.31;5101409;28;20527;-82
2021/01/21 07:44:09;;;;;;;5.68;1.73;;;;;;;8.88;59.60;97826.94;5101820;28;20032;-82
2021/01/21 07:46:34;;;;;;;4.22;1.10;;;;;;;9.02;60.58;97874.44;5101045;28;20028;-82
2021/01/21 07:49:22;;;;;;;3.33;0.93;;;;;;;8.29;67.42;97997.06;5100469;28;20020;-83
2021/01/21 07:52:06;;;;;;;1.35;0.35;;;;;;;6.65;73.01;97994.47;5100552;28;20012;-83
2021/01/21 07:54:44;;;;;;;1.23;0.32;;;;;;;6.12;75.92;98007.84;5097516;28;20031;-85
2021/01/21 07:57:09;;;;;;;2.22;0.40;;;;;;;5.75;76.16;98017.00;5100327;28;20031;-83
2021/01/21 07:59:56;;;;;;;1.40;0.50;;;;;;;5.53;78.77;97990.47;5101214;28;20028;-82
2021/01/21 08:02:21;;;;;;;1.65;0.40;;;;;;;5.34;78.50;97980.09;5102110;28;20490;-82
2021/01/21 08:05:13;;;;;;;2.85;0.50;;;;;;;5.22;78.82;97991.66;5103876;28;20012;-82
2021/01/21 08:07:47;;;;;;;3.92;0.40;;;;;;;5.17;77.59;97988.44;5098598;28;20032;-83
2021/01/21 08:10:14;;;;;;;2.15;0.40;;;;;;;5.10;78.29;98007.53;5101644;28;20039;-83
2021/01/21 08:12:39;;;;;;;4.63;0.50;;;;;;;5.06;78.16;98000.84;5100464;28;20438;-83
2021/01/21 08:15:05;;;;;;;3.22;0.50;;;;;;;4.99;78.57;98007.13;5101083;28;20038;-83
2021/01/21 08:17:31;;;;;;;2.13;0.35;;;;;;;5.03;77.13;98008.66;5100351;28;20064;-85
2021/01/21 08:19:57;;;;;;;2.13;0.50;;;;;;;5.05;76.78;98022.31;5098534;28;20020;-84
2021/01/21 08:22:22;;;;;;;4.22;0.52;;;;;;;5.03;76.14;98000.97;5098995;28;20404;-84
2021/01/21 08:25:01;;;;;;;2.75;0.43;;;;;;;4.97;77.15;98029.44;5098619;28;20031;-84
2021/01/21 08:27:43;;;;;;;2.53;0.43;;;;;;;4.97;77.59;98029.44;5096759;28;20034;-84
2021/01/21 08:30:20;;;;;;;2.25;0.30;;;;;;;5.00;76.83;98037.03;5101814;28;20426;-84
2021/01/21 08:32:50;;;;;;;1.83;0.40;;;;;;;4.90;78.42;98033.97;5103698;28;20361;-84
2021/01/21 08:35:20;;;;;;;4.05;0.47;;;;;;;4.84;78.97;98000.81;5098115;28;20020;-84
2021/01/21 08:37:45;;;;;;;3.75;0.57;;;;;;;4.93;77.55;98030.47;5097305;28;20410;-85
2021/01/21 08:40:12;;;;;;;8.27;0.88;;;;;;;4.98;77.01;98036.25;5096148;28;20074;-84
2021/01/21 08:42:37;;;;;;;2.67;0.40;;;;;;;5.03;76.72;98034.34;5095342;28;20074;-85
2021/01/21 08:45:04;;;;;;;4.93;0.77;;;;;;;4.97;78.34;98009.72;5096185;28;20028;-86
2021/01/21 08:47:41;;;;;;;4.22;0.70;;;;;;;4.97;78.67;98047.41;5095161;28;20138;-85
2021/01/21 08:50:07;;;;;;;2.78;0.70;;;;;;;5.00;78.35;98024.19;5095597;28;20020;-85
2021/01/21 08:52:32;;;;;;;6.97;0.57;;;;;;;5.01;78.64;98046.41;5093744;28;20115;-85
2021/01/21 08:54:57;;;;;;;1.63;0.45;;;;;;;5.07;78.36;98064.16;5094504;28;20020;-85
2021/01/21 08:57:24;;;;;;;4.82;0.63;;;;;;;5.15;78.22;98044.19;5094581;28;20024;-84
2021/01/21 08:59:50;;;;;;;2.33;0.50;;;;;;;5.24;78.31;98061.00;5095888;28;20024;-84
2021/01/21 09:02:41;;;;;;;2.65;0.50;;;;;;;5.45;76.20;98057.63;5095375;28;20434;-84
2021/01/21 09:05:07;;;;;;;1.77;0.50;;;;;;;5.30;76.99;98071.88;5094771;28;20107;-84
2021/01/21 09:07:33;;;;;;;2.53;0.55;;;;;;;5.22;77.60;98066.19;5095337;28;20028;-85
2021/01/21 09:10:11;;;;;;;2.55;0.40;;;;;;;5.30;76.66;98071.88;5095162;28;20024;-85
2021/01/21 09:12:36;;;;;;;2.75;0.45;;;;;;;5.40;76.52;98097.25;5093660;28;20031;-85
2021/01/21 09:15:07;;;;;;;2.83;0.50;;;;;;;5.44;76.56;98088.53;5094022;28;20027;-85
2021/01/21 09:17:33;;;;;;;6.30;1.42;;;;;;;5.49;75.58;98112.34;5095487;28;20086;-85
2021/01/21 09:20:00;;;;;;;5.25;0.98;;;;;;;5.54;75.20;98107.84;5095148;28;20111;-85
2021/01/21 09:22:36;;;;;;;4.55;0.90;;;;;;;5.62;74.61;98113.53;5093551;28;20031;-85
2021/01/21 09:25:06;;;;;;;2.40;0.45;;;;;;;5.62;74.98;98108.41;5094014;28;20023;-85
2021/01/21 09:27:36;;;;;;;6.45;0.70;;;;;;;5.64;74.13;98126.34;5094043;28;20047;-85
2021/01/21 09:30:06;;;;;;;4.40;0.85;;;;;;;5.63;74.73;98115.22;5093767;28;20096;-86
2021/01/21 09:32:37;;;;;;;2.58;0.50;;;;;;;5.77;73.26;98092.38;5096925;28;20031;-85
2021/01/21 09:35:12;;;;;;;2.70;0.70;;;;;;;5.71;72.94;98117.50;5095155;28;20020;-85
2021/01/21 09:37:41;;;;;;;3.30;1.10;;;;;;;5.68;74.18;98118.47;5094422;28;20028;-84
2021/01/21 09:40:08;;;;;;;6.18;1.23;;;;;;;5.66;73.95;98133.09;5096365;28;20115;-84
2021/01/21 09:42:34;;;;;;;5.55;0.80;;;;;;;5.72;73.46;98130.28;5096293;28;20548;-84
2021/01/21 09:44:59;;;;;;;4.57;0.68;;;;;;;5.77;73.45;98125.81;5093749;28;20016;-85
2021/01/21 09:47:26;;;;;;;4.05;1.25;;;;;;;5.80;73.35;98130.03;5092851;28;20016;-85
2021/01/21 09:49:51;;;;;;;3.45;0.68;;;;;;;5.92;73.18;98134.69;5092992;28;20020;-85
2021/01/21 09:52:16;;;;;;;4.72;0.77;;;;;;;5.93;72.45;98138.97;5093383;28;20074;-84
2021/01/21 09:54:41;;;;;;;3.67;0.60;;;;;;;5.90;72.28;98141.63;5092977;28;20392;-85
2021/01/21 09:57:07;;;;;;;6.43;0.88;;;;;;;5.76;72.35;98149.03;5093582;28;20028;-84
2021/01/21 09:59:33;;;;;;;4.93;0.68;;;;;;;5.71;73.07;98167.19;5093055;28;20024;-85
2021/01/21 10:01:59;;;;;;;7.30;1.73;;;;;;;5.66;72.71;98169.09;5094964;28;20024;-85
2021/01/21 10:04:24;;;;;;;6.63;1.10;;;;;;;5.60;72.90;98178.78;5093758;28;20387;-84
2021/01/21 10:06:51;;;;;;;4.07;0.90;;;;;;;5.58;72.85;98181.41;5092902;28;20024;-84
2021/01/21 10:09:16;;;;;;;4.35;0.75;;;;;;;5.82;72.42;98174.53;5092948;28;20027;-84
2021/01/21 10:11:41;;;;;;;2.80;0.75;;;;;;;5.89;71.44;98182.84;5092753;28;20074;-84
2021/01/21 10:14:07;;;;;;;6.68;1.08;;;;;;;5.79;71.56;98179.78;5094770;28;20020;-85
2021/01/21 10:16:32;;;;;;;5.82;0.80;;;;;;;5.67;71.90;98186.22;5095426;28;20614;-84
2021/01/21 10:18:58;;;;;;;5.57;0.80;;;;;;;5.76;71.26;98185.06;5093126;28;20104;-85
2021/01/21 10:21:24;;;;;;;4.65;0.70;;;;;;;5.86;71.04;98188.94;5094268;28;20075;-84
2021/01/21 10:23:50;;;;;;;6.40;0.80;;;;;;;6.06;70.28;98188.22;5094076;28;20027;-84
2021/01/21 10:26:15;;;;;;;4.57;0.98;;;;;;;5.98;70.62;98185.13;5093125;28;20020;-85
2021/01/21 10:28:41;;;;;;;3.80;0.63;;;;;;;5.97;69.58;98191.13;5093405;28;20081;-85
2021/01/21 10:31:07;;;;;;;4.43;0.73;;;;;;;6.05;69.29;98183.16;5094768;28;20020;-85
2021/01/21 10:33:32;;;;;;;4.88;0.80;;;;;;;6.10;69.38;98184.66;5093048;28;20016;-85
2021/01/21 10:35:57;;;;;;;5.57;0.90;;;;;;;6.13;69.12;98181.97;5093092;28;20103;-85
2021/01/21 10:38:22;;;;;;;6.47;1.10;;;;;;;6.09;68.71;98184.69;5092987;28;20024;-85
2021/01/21 10:40:48;;;;;;;6.50;1.02;;;;;;;6.12;68.24;98182.00;5092992;28;20028;-85
2021/01/21 10:43:13;;;;;;;2.65;0.55;;;;;;;6.23;67.11;98178.13;5094378;28;20468;-84
2021/01/21 10:45:38;;;;;;;5.38;0.60;;;;;;;6.29;67.12;98179.63;5092429;28;20023;-84
2021/01/21 10:48:04;;;;;;;4.72;0.95;;;;;;;6.26;67.91;98179.75;5093053;28;20027;-85
2021/01/21 10:50:29;;;;;;;3.92;0.90;;;;;;;6.33;66.73;98180.34;5097760;28;20035;-85
2021/01/21 10:52:54;;;;;;;4.38;0.80;;;;;;;6.54;66.11;98184.63;5096908;28;20019;-85
2021/01/21 10:55:20;;;;;;;1.88;0.47;;;;;;;6.61;65.11;98188.63;5097686;28;20047;-84
2021/01/21 10:57:45;;;;;;;3.65;0.70;;;;;;;6.57;64.33;98184.50;5096507;28;20107;-85
2021/01/21 11:00:10;;;;;;;3.55;0.70;;;;;;;7.31;63.10;98187.44;5097117;28;20055;-84
2021/01/21 11:02:36;;;;;;;6.35;1.00;;;;;;;6.66;64.43;98178.16;5096020;28;20028;-84
2021/01/21 11:05:01;;;;;;;4.93;1.15;;;;;;;6.45;65.54;98182.44;5098174;28;20510;-84
2021/01/21 11:07:26;;;;;;;5.50;0.70;;;;;;;6.55;64.39;98188.03;5100679;28;20091;-84
2021/01/21 11:09:51;;;;;;;5.78;1.17;;;;;;;6.82;64.47;98188.66;5098271;28;20028;-85
2021/01/21 11:12:17;;;;;;;3.80;0.98;;;;;;;7.74;59.18;98174.41;5095751;28;20032;-84
2021/01/21 11:14:43;;;;;;;5.00;1.30;;;;;;;7.75;59.85;98192.38;5095630;28;20391;-85
2021/01/21 11:17:08;;;;;;;3.90;0.98;;;;;;;7.45;61.41;98193.72;5098220;28;20024;-85
2021/01/21 11:19:34;;;;;;;4.97;1.00;;;;;;;7.19;61.81;98175.06;5096712;28;20030;-84
2021/01/21 11:21:59;;;;;;;5.80;1.30;;;;;;;7.45;61.10;98181.69;5096604;28;20488;-84
2021/01/21 11:24:24;;;;;;;4.03;0.80;;;;;;;8.70;56.85;98194.88;5095589;28;20027;-85
2021/01/21 11:26:49;;;;;;;4.95;0.93;;;;;;;9.75;52.94;98196.44;5097133;28;20024;-84
2021/01/21 11:29:15;;;;;;;3.28;0.60;;;;;;;9.01;54.48;98191.63;5098051;28;20028;-84
2021/01/21 11:31:40;;;;;;;6.50;0.95;;;;;;;8.97;54.98;98197.88;5095953;28;20031;-84
2021/01/21 11:34:05;;;;;;;5.38;1.13;;;;;;;9.29;53.84;98196.22;5098157;28;20043;-84
2021/01/21 11:36:30;;;;;;;6.20;0.95;;;;;;;10.62;50.65;98188.25;5098039;28;20515;-85
2021/01/21 11:38:56;;;;;;;5.53;1.20;;;;;;;9.85;51.21;98189.00;5097725;28;20024;-84
2021/01/21 11:41:21;;;;;;;3.55;0.70;;;;;;;9.03;53.57;98194.97;5097203;28;20078;-84
2021/01/21 11:43:46;;;;;;;4.72;1.00;;;;;;;8.13;56.03;98207.88;5097411;28;20031;-83
2021/01/21 11:46:12;;;;;;;5.80;1.17;;;;;;;9.37;52.98;98199.28;5098157;28;20551;-83